Ampere, New Jersey
Current Conditions -  °F | °C
As of 9:51 AM on Monday 24 Nov 2014 (Local Time) from KEWR Reporting Station
Broken Clouds Broken Clouds  
Wind Chill: 19°   Ceiling: 1500
Heat Index: 19°   Visibility: 10mi
Dew Point: 14°   Wind: 12mph
Humidity: 75%   Direction: 190°S
Pressure: 29.67"   Gusts: 23mph
Location:  40.7716°N, 74.2073°W
Report Text: KEWR 241451Z 19010G20KT 10SM FEW010 BKN015 BKN032 19/14 A2967 RMK AO2 RAB28E47 SLP047 P0000 60001 T01890144 56010
Loading
Personal Weather Stations






























Interactive Weather Map New forecast layout! Learn more

10-Day Weather Forecast

Advertisements
Track Severe Weather on mobile